Flight Track Log - Related Links

Times and Time Zones

All times are in EDT time to prevent confusion due to time zone crossing. See the N506SA flight status page for this flight to view local times or setup timezone preferences in your user account.

Time Position Orientation Groundspeed Altitude Reporting Facility
EDT Latitude Longitude Course Direction KTS MPH feet Rate Location/Type
Wed 12:23:28 PM 32.0061 -81.1336 180° South 259 298 9,000  Level Jacksonville Center
Wed 12:24:28 PM 31.9225 -81.1375 182° South 296 341 10,500 2,200 Climbing Jacksonville Center
Wed 12:25:28 PM 31.8350 -81.1442 184° South 338 389 13,400 3,300 Climbing Jacksonville Center
Wed 12:26:28 PM 31.7225 -81.1511 183° South 368 423 17,100 3,200 Climbing Jacksonville Center
Wed 12:27:00 PM 31.4045 -81.1667 180° South  Level FlightAware Approximate
Wed 12:27:28 PM 31.6097 -81.1581 183° South 403 464 19,800  Level Jacksonville Center
Wed 12:28:00 PM 31.2849 -81.1667 180° South  Level FlightAware Approximate
Wed 12:28:28 PM 31.5053 -81.1625 182° South 403 464 22,600  Level Jacksonville Center
Wed 12:29:28 PM 31.3739 -81.1722 184° South 419 482 25,300 2,700 Climbing Jacksonville Center
Wed 12:30:28 PM 31.2614 -81.1742 181° South 440 506 28,000 2,250 Climbing Jacksonville Center
Wed 12:31:28 PM 31.1339 -81.1694 178° South 446 513 29,800 2,050 Climbing Jacksonville Center
Wed 12:32:28 PM 31.0044 -81.1644 178° South 463 533 32,100 2,650 Climbing Jacksonville Center
Wed 12:33:28 PM 30.8750 -81.1644 180° South 469 540 35,100 3,150 Climbing Jacksonville Center
Wed 12:34:28 PM 30.7494 -81.1594 178° South 463 533 38,400 2,450 Climbing Jacksonville Center
Wed 12:35:28 PM 30.6347 -81.1542 178° South 445 512 40,000 800 Climbing Jacksonville Center
Wed 12:36:28 PM 30.5114 -81.1492 178° South 429 494 40,000  Level Jacksonville Center
Wed 12:37:28 PM 30.3964 -81.1442 178° South 415 478 40,000 400 Level Jacksonville Center
Wed 12:38:28 PM 30.2794 -81.1439 180° South 415 478 40,800 750 Climbing Jacksonville Center
Wed 12:39:28 PM 30.1644 -81.1267 173° South 422 486 41,500 650 Climbing Jacksonville Center
Wed 12:40:28 PM 30.0428 -81.0881 165° South 433 498 42,100 550 Climbing Jacksonville Center
Wed 12:41:28 PM 29.9150 -81.0497 165° South 455 524 42,600 500 Climbing Jacksonville Center
Wed 12:42:28 PM 29.7872 -81.0117 166° South 466 536 43,100 500 Climbing Jacksonville Center
Wed 12:43:28 PM 29.6633 -80.9733 165° South 471 542 43,600 500 Climbing Jacksonville Center
Wed 12:44:28 PM 29.5397 -80.9353 165° South 471 542 44,100 500 Climbing Jacksonville Center
Wed 12:45:28 PM 29.4325 -80.9017 165° South 459 528 44,600 375 Climbing Jacksonville Center
Wed 12:46:52 PM 29.2611 -80.8522 166° South 453 521 45,000 167 Climbing Miami Center
Wed 12:47:52 PM 29.1414 -80.8075 162° South 448 516 45,000  Level Miami Center
Wed 12:48:52 PM 29.0217 -80.7653 163° South 448 516 45,000  Level Miami Center
Wed 12:49:52 PM 28.8956 -80.7206 163° South 448 516 45,000  Level Miami Center
Wed 12:50:52 PM 28.7736 -80.6761 162° South 453 521 45,000  Level Miami Center
Wed 12:51:52 PM 28.6558 -80.6342 163° South 453 521 45,000  Level Miami Center
Wed 12:52:52 PM 28.5461 -80.5997 165° South 453 521 45,000  Level Miami Center
Wed 12:53:52 PM 28.4283 -80.5556 162° South 453 521 45,000  Level Miami Center
Wed 12:54:51 PM 28.2981 -80.5089 162° South 448 516 45,000  Level Miami Center
Wed 12:55:52 PM 28.1822 -80.4675 163° South 448 516 45,000  Level Miami Center
Wed 12:56:52 PM 28.0622 -80.4283 164° South 454 522 45,000  Level Miami Center
Wed 12:57:52 PM 27.9547 -80.3897 162° South 449 517 45,000  Level Miami Center
Wed 12:58:52 PM 27.8200 -80.3433 163° South 457 526 45,000  Level Miami Center
Wed 12:59:52 PM 27.7000 -80.3044 164° South 457 526 45,000  Level Miami Center
Wed 01:00:52 PM 27.5819 -80.2611 162° South 452 520 45,000  Level Miami Center
Wed 01:01:52 PM 27.4619 -80.2200 163° South 452 520 45,000  Level Miami Center
Wed 01:02:52 PM 27.3417 -80.1792 163° South 452 520 45,000  Level Miami Center
Wed 01:03:52 PM 27.2214 -80.1383 163° South 453 521 45,000  Level Miami Center
Wed 01:04:52 PM 27.1011 -80.1000 164° South 453 521 45,000  Level Miami Center
Wed 01:05:52 PM 26.9853 -80.0547 161° South 448 516 45,000  Level Miami Center
Wed 01:06:52 PM 26.8628 -80.0167 165° South 448 516 45,000  Level Miami Center
Wed 01:07:52 PM 26.7511 -79.9764 162° South 456 525 45,000  Level Miami Center
Wed 01:08:52 PM 26.6161 -79.9308 163° South 456 525 45,000  Level Miami Center
Wed 01:09:52 PM 26.5106 -79.8956 163° South 450 518 45,000  Level Miami Center
Wed 01:10:52 PM 26.3797 -79.8483 162° South 455 524 45,000  Level Miami Center
Wed 01:11:52 PM 26.2594 -79.8106 164° South 455 524 45,000  Level Miami Center
Wed 01:12:52 PM 26.1392 -79.7706 163° South 455 524 45,000  Level Miami Center
Wed 01:13:52 PM 26.0186 -79.7283 163° South 455 524 45,000  Level Miami Center
Wed 01:14:52 PM 25.8961 -79.6906 164° South 455 524 45,000  Level Miami Center
Wed 01:15:52 PM 25.7739 -79.6486 163° South 455 524 45,000  Level Miami Center
Wed 01:16:52 PM 25.6594 -79.6114 164° South 455 524 45,000  Level Miami Center
Wed 01:17:52 PM 25.5369 -79.5717 164° South 455 524 45,000  Level Miami Center
Wed 01:18:52 PM 25.4144 -79.5414 167° South 455 524 45,000  Level Miami Center
Wed 01:19:52 PM 25.2936 -79.5158 169° South 450 518 45,000  Level Miami Center
Wed 01:20:52 PM 25.1833 -79.4903 168° South 450 518 45,000  Level Miami Center
Wed 01:21:52 PM 25.0564 -79.4647 170° South 450 518 45,000  Level Miami Center
Wed 01:22:52 PM 24.9253 -79.4344 168° South 469 540 45,000  Level Miami Center
Wed 01:23:52 PM 24.7942 -79.4067 169° South 474 545 45,000  Level Miami Center
Wed 01:24:52 PM 24.6628 -79.3786 169° South 480 552 45,000  Level Miami Center
Wed 01:25:52 PM 24.5297 -79.3486 168° South 485 558 45,000  Level Miami Center
Wed 01:26:52 PM 24.3986 -79.3186 168° South 485 558 45,000  Level Miami Center
Wed 01:27:52 PM 24.2653 -79.2933 170° South 485 558 45,000  Level Miami Center
Wed 01:28:52 PM 24.1342 -79.2633 168° South 485 558 45,000  Level Miami Center
Wed 01:29:52 PM 24.0031 -79.2336 168° South 485 558 45,000  Level Miami Center
Wed 01:31:00 PM 23.8710 -79.1948 173° South  Level Estimated
Wed 01:38:00 PM 23.0460 -78.9965 168° South  Level FlightAware Approximate
Wed 01:39:00 PM 22.9282 -78.9684 168° South  Level FlightAware Approximate
Wed 01:40:00 PM 22.8103 -78.9403 168° South  Level FlightAware Approximate
Wed 01:41:00 PM 22.6924 -78.9123 168° South  Level FlightAware Approximate
Wed 01:42:00 PM 22.5745 -78.8843 168° South  Level FlightAware Approximate
Wed 01:43:00 PM 22.4877 -78.8650 173° South  Level FlightAware Approximate
Wed 01:44:00 PM 22.3680 -78.8490 173° South  Level FlightAware Approximate
Wed 01:45:00 PM 22.2482 -78.8330 173° South  Level FlightAware Approximate
Wed 01:46:00 PM 22.1284 -78.8171 173° South  Level FlightAware Approximate
Wed 01:47:00 PM 22.0087 -78.8011 173° South  Level FlightAware Approximate
Wed 01:48:00 PM 21.8918 -78.7690 165° South  Level FlightAware Approximate
Wed 01:49:00 PM 21.7752 -78.7357 165° South  Level FlightAware Approximate
Wed 01:50:00 PM 21.6585 -78.7024 165° South  Level FlightAware Approximate
Wed 01:51:00 PM 21.5418 -78.6692 165° South  Level FlightAware Approximate
Wed 01:52:00 PM 21.4252 -78.6361 165° South  Level FlightAware Approximate
Wed 01:53:00 PM 21.3085 -78.6030 165° South  Level FlightAware Approximate
Wed 01:54:00 PM 21.1918 -78.5699 165° South  Level FlightAware Approximate
Wed 01:55:00 PM 21.0751 -78.5369 165° South  Level FlightAware Approximate
Wed 01:56:00 PM 20.9585 -78.5039 165° South  Level FlightAware Approximate
Wed 01:57:00 PM 20.8418 -78.4710 165° South  Level FlightAware Approximate
Wed 01:58:00 PM 20.7251 -78.4382 165° South  Level FlightAware Approximate
Wed 01:59:00 PM 20.6084 -78.4054 165° South  Level FlightAware Approximate
Wed 02:00:00 PM 20.4916 -78.3726 165° South  Level FlightAware Approximate
Wed 02:01:00 PM 20.3749 -78.3399 165° South  Level FlightAware Approximate
Wed 02:02:00 PM 20.2582 -78.3073 165° South  Level FlightAware Approximate
Wed 02:03:00 PM 20.1415 -78.2747 165° South  Level FlightAware Approximate
Wed 02:04:00 PM 20.0247 -78.2421 165° South  Level FlightAware Approximate
Wed 02:05:00 PM 19.9080 -78.2095 165° South  Level FlightAware Approximate
Wed 02:06:00 PM 19.7913 -78.1767 165° South  Level FlightAware Approximate
Wed 02:07:00 PM 19.6747 -78.1439 165° South  Level FlightAware Approximate
Wed 02:08:00 PM 19.5580 -78.1112 165° South  Level FlightAware Approximate
Wed 02:09:00 PM 19.4413 -78.0785 165° South  Level FlightAware Approximate
Wed 02:10:00 PM 19.3246 -78.0458 165° South  Level FlightAware Approximate
Wed 02:11:00 PM 19.2080 -78.0132 165° South  Level FlightAware Approximate
Wed 02:12:00 PM 19.0913 -77.9807 165° South  Level FlightAware Approximate
Wed 02:13:00 PM 18.9746 -77.9482 165° South  Level FlightAware Approximate
Wed 02:14:00 PM 18.8579 -77.9157 165° South  Level FlightAware Approximate
Wed 02:15:00 PM 18.7411 -77.8833 165° South  Level FlightAware Approximate
Wed 02:16:00 PM 18.6244 -77.8509 165° South  Level FlightAware Approximate
Wed 02:17:00 PM 18.5077 -77.8186 165° South  Level FlightAware Approximate
Wed 02:18:00 PM 18.3910 -77.7863 165° South  Level FlightAware Approximate
Wed 02:19:00 PM 18.2743 -77.7541 165° South  Level FlightAware Approximate
Wed 02:20:00 PM 18.1575 -77.7219 165° South  Level FlightAware Approximate
Wed 02:21:00 PM 18.0408 -77.6897 165° South  Level FlightAware Approximate
Wed 02:22:00 PM 17.9240 -77.6576 165° South  Level FlightAware Approximate
Wed 02:23:00 PM 17.8073 -77.6255 165° South  Level FlightAware Approximate
Wed 02:24:00 PM 17.6905 -77.5935 165° South  Level FlightAware Approximate
Wed 02:25:00 PM 17.5737 -77.5615 165° South  Level FlightAware Approximate
Wed 02:26:00 PM 17.4570 -77.5296 165° South  Level FlightAware Approximate
Wed 02:27:00 PM 17.3402 -77.4977 165° South  Level FlightAware Approximate
Wed 02:28:00 PM 17.2234 -77.4658 165° South  Level FlightAware Approximate
Wed 02:29:00 PM 17.1066 -77.4340 165° South  Level FlightAware Approximate
Wed 02:30:00 PM 16.9899 -77.4022 165° South  Level FlightAware Approximate
Wed 02:31:00 PM 16.8731 -77.3705 165° South  Level FlightAware Approximate
Wed 02:32:00 PM 16.7563 -77.3388 165° South  Level FlightAware Approximate
Wed 02:33:00 PM 16.6395 -77.3071 165° South  Level FlightAware Approximate
Wed 02:34:00 PM 16.5227 -77.2755 165° South  Level FlightAware Approximate
Wed 02:35:00 PM 16.4058 -77.2439 165° South  Level FlightAware Approximate
Wed 02:36:00 PM 16.2890 -77.2123 165° South  Level FlightAware Approximate
Wed 02:37:00 PM 16.1722 -77.1808 165° South  Level FlightAware Approximate
Wed 02:38:00 PM 16.0554 -77.1493 165° South  Level FlightAware Approximate
Wed 02:39:00 PM 15.9385 -77.1179 165° South  Level FlightAware Approximate
Wed 02:40:00 PM 15.8217 -77.0865 166° South  Level FlightAware Approximate
Wed 02:41:00 PM 15.7049 -77.0551 166° South  Level FlightAware Approximate
Wed 02:42:00 PM 15.5880 -77.0238 166° South  Level FlightAware Approximate
Wed 02:43:00 PM 15.4712 -76.9925 166° South  Level FlightAware Approximate
Wed 02:44:00 PM 15.3543 -76.9612 166° South  Level FlightAware Approximate
Wed 02:45:00 PM 15.2375 -76.9300 166° South  Level FlightAware Approximate
Wed 02:46:00 PM 15.1206 -76.8988 166° South  Level FlightAware Approximate
Wed 02:47:00 PM 15.0037 -76.8677 166° South  Level FlightAware Approximate
Wed 02:48:00 PM 14.8853 -76.8437 169° South  Level FlightAware Approximate
Wed 02:49:00 PM 14.7668 -76.8200 169° South  Level FlightAware Approximate
Wed 02:50:00 PM 14.6483 -76.7964 169° South  Level FlightAware Approximate
Wed 02:51:00 PM 14.5298 -76.7727 169° South  Level FlightAware Approximate
Wed 02:52:00 PM 14.4113 -76.7491 169° South  Level FlightAware Approximate
Wed 02:53:00 PM 14.2928 -76.7255 169° South  Level FlightAware Approximate
Wed 02:54:00 PM 14.1743 -76.7020 169° South  Level FlightAware Approximate
Wed 02:55:00 PM 14.0558 -76.6785 169° South  Level FlightAware Approximate
Wed 02:56:00 PM 13.9373 -76.6550 169° South  Level FlightAware Approximate
Wed 02:57:00 PM 13.8188 -76.6315 169° South  Level FlightAware Approximate
Wed 02:58:00 PM 13.7003 -76.6080 169° South  Level FlightAware Approximate
Wed 02:59:00 PM 13.5818 -76.5846 169° South  Level FlightAware Approximate
Wed 03:00:00 PM 13.4633 -76.5612 169° South  Level FlightAware Approximate
Wed 03:01:00 PM 13.3448 -76.5378 169° South  Level FlightAware Approximate
Wed 03:02:00 PM 13.2263 -76.5144 169° South  Level FlightAware Approximate
Wed 03:03:00 PM 13.1077 -76.4911 169° South  Level FlightAware Approximate
Wed 03:04:00 PM 12.9892 -76.4678 169° South  Level FlightAware Approximate
Wed 03:05:00 PM 12.8707 -76.4445 169° South  Level FlightAware Approximate
Wed 03:06:00 PM 12.7522 -76.4212 169° South  Level FlightAware Approximate
Wed 03:07:00 PM 12.6336 -76.3979 169° South  Level FlightAware Approximate
Wed 03:08:00 PM 12.5151 -76.3747 169° South  Level FlightAware Approximate
Wed 03:09:00 PM 12.3966 -76.3515 169° South  Level FlightAware Approximate
Wed 03:10:00 PM 12.2781 -76.3283 169° South  Level FlightAware Approximate
Wed 03:11:00 PM 12.1595 -76.3051 169° South  Level FlightAware Approximate
Wed 03:12:00 PM 12.0412 -76.2811 169° South  Level FlightAware Approximate
Wed 03:13:00 PM 11.9228 -76.2570 169° South  Level FlightAware Approximate
Wed 03:14:00 PM 11.8045 -76.2328 169° South  Level FlightAware Approximate
Wed 03:15:00 PM 11.6861 -76.2086 169° South  Level FlightAware Approximate
Wed 03:16:00 PM 11.5678 -76.1845 169° South  Level FlightAware Approximate
Wed 03:17:00 PM 11.4495 -76.1604 169° South  Level FlightAware Approximate
Wed 03:18:00 PM 11.3311 -76.1363 169° South  Level FlightAware Approximate
Wed 03:19:00 PM 11.2128 -76.1122 169° South  Level FlightAware Approximate
Wed 03:20:00 PM 11.0944 -76.0882 169° South  Level FlightAware Approximate
Wed 03:21:00 PM 10.9761 -76.0641 169° South  Level FlightAware Approximate
Wed 03:22:00 PM 10.8577 -76.0401 169° South  Level FlightAware Approximate
Wed 03:23:00 PM 10.7394 -76.0161 169° South  Level FlightAware Approximate
Wed 03:24:00 PM 10.6210 -75.9922 169° South  Level FlightAware Approximate
Wed 03:25:00 PM 10.5027 -75.9682 169° South  Level FlightAware Approximate
Wed 03:26:00 PM 10.3843 -75.9443 169° South  Level FlightAware Approximate
Wed 03:27:00 PM 10.2659 -75.9203 169° South  Level FlightAware Approximate
Wed 03:28:00 PM 10.1476 -75.8964 169° South  Level FlightAware Approximate
Wed 03:29:00 PM 10.0292 -75.8726 169° South  Level FlightAware Approximate
Wed 03:30:00 PM 9.9107 -75.8493 169° South  Level FlightAware Approximate
Wed 03:31:00 PM 9.7922 -75.8262 169° South  Level FlightAware Approximate
Wed 03:32:00 PM 9.6737 -75.8031 169° South  Level FlightAware Approximate
Wed 03:33:00 PM 9.5552 -75.7800 169° South  Level FlightAware Approximate
Wed 03:34:00 PM 9.4367 -75.7570 169° South  Level FlightAware Approximate
Wed 03:35:00 PM 9.3181 -75.7340 169° South  Level FlightAware Approximate
Wed 03:36:00 PM 9.1996 -75.7110 169° South  Level FlightAware Approximate
Wed 03:37:00 PM 9.0811 -75.6880 169° South  Level FlightAware Approximate
Wed 03:38:00 PM 8.9626 -75.6650 169° South  Level FlightAware Approximate
Wed 03:39:00 PM 8.8441 -75.6420 169° South  Level FlightAware Approximate
Wed 03:40:00 PM 8.7255 -75.6191 169° South  Level FlightAware Approximate
Wed 03:41:00 PM 8.6070 -75.5961 169° South  Level FlightAware Approximate
Wed 03:42:00 PM 8.4885 -75.5732 169° South  Level FlightAware Approximate
Wed 03:43:00 PM 8.3699 -75.5503 169° South  Level FlightAware Approximate
Wed 03:44:00 PM 8.2514 -75.5274 169° South  Level FlightAware Approximate
Wed 03:45:00 PM 8.1329 -75.5045 169° South  Level FlightAware Approximate
Wed 03:46:00 PM 8.0143 -75.4817 169° South  Level FlightAware Approximate
Wed 03:47:00 PM 7.8958 -75.4588 169° South  Level FlightAware Approximate
Wed 03:48:00 PM 7.7775 -75.4348 168° South  Level FlightAware Approximate
Wed 03:49:00 PM 7.6594 -75.4100 168° South  Level FlightAware Approximate
Wed 03:50:00 PM 7.5412 -75.3851 168° South  Level FlightAware Approximate
Wed 03:51:00 PM 7.4231 -75.3604 168° South  Level FlightAware Approximate
Wed 03:52:00 PM 7.3049 -75.3356 168° South  Level FlightAware Approximate
Wed 03:53:00 PM 7.1868 -75.3108 168° South  Level FlightAware Approximate
Wed 03:54:00 PM 7.0686 -75.2861 168° South  Level FlightAware Approximate
Wed 03:55:00 PM 6.9505 -75.2613 168° South  Level FlightAware Approximate
Wed 03:56:00 PM 6.8323 -75.2366 168° South  Level FlightAware Approximate
Wed 03:57:00 PM 6.7130 -75.2185 172° South  Level FlightAware Approximate
Wed 03:58:00 PM 6.5935 -75.2014 172° South  Level FlightAware Approximate
Wed 03:59:00 PM 6.4751 -75.1783 169° South  Level FlightAware Approximate
Wed 04:00:00 PM 6.3567 -75.1547 169° South  Level FlightAware Approximate
Wed 04:01:00 PM 6.2386 -75.1301 164° South  Level FlightAware Approximate
Wed 04:02:00 PM 6.1223 -75.0978 169° South  Level FlightAware Approximate
Wed 04:03:00 PM 6.0039 -75.0741 169° South  Level FlightAware Approximate
Wed 04:04:00 PM 5.8861 -75.0479 171° South  Level FlightAware Approximate
Wed 04:05:00 PM 5.7669 -75.0295 171° South  Level FlightAware Approximate
Wed 04:06:00 PM 5.6479 -75.0093 168° South  Level FlightAware Approximate
Wed 04:07:00 PM 5.5297 -74.9849 168° South  Level FlightAware Approximate
Wed 04:08:00 PM 5.4115 -74.9604 168° South  Level FlightAware Approximate
Wed 04:09:00 PM 5.2933 -74.9360 168° South  Level FlightAware Approximate
Wed 04:10:00 PM 5.1859 -74.8955 124° Southeast  Level FlightAware Approximate
Wed 04:11:00 PM 5.1187 -74.7948 124° Southeast  Level FlightAware Approximate
Wed 04:12:00 PM 5.0516 -74.6941 124° Southeast  Level FlightAware Approximate
Wed 04:13:00 PM 4.9861 -74.5924 123° Southeast  Level FlightAware Approximate
Wed 04:14:00 PM 4.9211 -74.4903 123° Southeast  Level FlightAware Approximate
Wed 04:15:00 PM 4.8569 -74.3877 122° Southeast  Level FlightAware Approximate
Wed 04:16:00 PM 4.7875 -74.2888 127° Southeast  Level FlightAware Approximate
Wed 04:17:00 PM 4.7196 -74.1892 117° Southeast  Level FlightAware Approximate
Wed 04:18:00 PM 4.7016 -74.1469 108° East  Level Estimated
Wed 04:19:00 PM 4.7016 -74.1469 108° East  Level Estimated
Wed 04:20:00 PM 4.7016 -74.1469 108° East  Level Estimated
Wed 04:21:00 PM 4.7016 -74.1469 108° East  Level Estimated
Wed 04:22:00 PM 4.7016 -74.1469 108° East  Level Estimated
Wed 04:23:00 PM 4.7016 -74.1469 108° East  Level Estimated
Wed 04:24:00 PM 4.7016 -74.1469 108° East  Level Estimated
Wed 04:25:00 PM 4.7016 -74.1469 108° East  Level Estimated
Wed 04:26:00 PM 4.7016 -74.1469 108° East  Level Estimated
Wed 04:27:00 PM 4.7016 -74.1469 108° East  Level Estimated
Wed 04:28:00 PM 4.7016 -74.1469 108° East  Level Estimated
Wed 04:29:00 PM 4.7016 -74.1469 108° East  Level Estimated
Wed 04:30:00 PM 4.7016 -74.1469 108° East  Level Estimated
Wed 04:31:00 PM 4.7016 -74.1469 108° East  Level Estimated
Wed 04:32:00 PM 4.7016 -74.1469 108° East  Level Estimated
Wed 04:33:00 PM 4.7016 -74.1469 108° East  Level Estimated

Login

Don't have an account? Register now (free) for customized features, flight alerts, and more!